Time;durP1;ratioP1;P1;durP2;ratioP2;P2;SDS_P1;SDS_P2;PMS_P1;PMS_P2;Temp;Humidity;BMP_temperature;BMP_pressure;BME280_temperature;BME280_humidity;BME280_pressure;Samples;Min_cycle;Max_cycle;Signal;HPM_P1;HPM_P2
2022/12/12 00:02:02;;;;;;;29.80;18.50;;;0.10;99.90;;;;;;5117684;28;20974;-60
2022/12/12 00:04:29;;;;;;;34.40;17.20;;;0.00;99.90;;;;;;5117504;28;20461;-62
2022/12/12 00:06:57;;;;;;;25.10;17.40;;;0.00;99.90;;;;;;5117625;28;20450;-60
2022/12/12 00:09:24;;;;;;;29.03;19.00;;;-0.10;99.90;;;;;;5117712;28;20462;-60
2022/12/12 00:11:51;;;;;;;24.90;16.30;;;-0.10;99.90;;;;;;5117878;28;20854;-62
2022/12/12 00:14:19;;;;;;;26.23;19.13;;;-0.10;99.90;;;;;;5117723;28;20472;-59
2022/12/12 00:16:48;;;;;;;25.77;18.17;;;-0.10;99.90;;;;;;5117427;28;20449;-62
2022/12/12 00:19:15;;;;;;;26.50;18.13;;;-0.10;99.90;;;;;;5117565;28;20458;-61
2022/12/12 00:21:42;;;;;;;25.23;17.03;;;0.00;99.90;;;;;;5117334;28;20453;-59
2022/12/12 00:24:10;;;;;;;19.30;14.93;;;0.00;99.90;;;;;;5117565;28;20442;-59
2022/12/12 00:26:38;;;;;;;27.47;17.33;;;-0.10;99.90;;;;;;5117556;28;20453;-61
2022/12/12 00:29:06;;;;;;;24.67;17.77;;;-0.10;99.90;;;;;;5117175;28;20470;-59
2022/12/12 00:31:33;;;;;;;25.23;15.60;;;-0.10;99.90;;;;;;5117164;28;20442;-62
2022/12/12 00:34:02;;;;;;;27.43;15.47;;;0.00;99.90;;;;;;5117034;28;20449;-60
2022/12/12 00:36:31;;;;;;;21.63;16.07;;;0.00;99.90;;;;;;5116923;28;20457;-60
2022/12/12 00:39:00;;;;;;;25.80;16.73;;;0.10;99.90;;;;;;5116804;28;20484;-60
2022/12/12 00:41:28;;;;;;;25.00;14.40;;;-0.10;99.90;;;;;;5117123;28;20474;-60
2022/12/12 00:43:55;;;;;;;22.93;14.20;;;-0.10;99.90;;;;;;5117239;28;20450;-60
2022/12/12 00:46:25;;;;;;;23.10;15.07;;;-0.10;99.90;;;;;;5116826;28;20450;-61
2022/12/12 00:48:55;;;;;;;22.67;15.87;;;-0.10;99.90;;;;;;5117128;28;20442;-60
2022/12/12 00:51:30;;;;;;;21.90;15.40;;;-0.10;99.90;;;;;;5117025;28;20455;-60
2022/12/12 00:53:58;;;;;;;19.37;14.77;;;0.00;99.90;;;;;;5116872;28;20422;-60
2022/12/12 00:56:27;;;;;;;28.53;16.47;;;-0.10;99.90;;;;;;5116672;28;20442;-62
2022/12/12 00:58:54;;;;;;;24.07;15.17;;;-0.10;99.90;;;;;;5116810;28;20458;-61
2022/12/12 01:01:24;;;;;;;22.83;15.70;;;-0.10;99.90;;;;;;5116508;28;20485;-61
2022/12/12 01:03:52;;;;;;;21.83;15.20;;;-0.20;99.90;;;;;;5116801;28;20450;-61
2022/12/12 01:06:20;;;;;;;22.17;14.80;;;-0.20;99.90;;;;;;5116503;28;20537;-62
2022/12/12 01:08:49;;;;;;;17.63;15.33;;;-0.30;99.90;;;;;;5116758;28;20454;-61
2022/12/12 01:11:17;;;;;;;21.77;15.77;;;-0.20;99.90;;;;;;5115911;28;20439;-62
2022/12/12 01:13:47;;;;;;;23.67;16.77;;;-0.10;99.90;;;;;;5116325;28;20446;-62
2022/12/12 01:16:14;;;;;;;22.60;15.07;;;-0.30;99.90;;;;;;5116336;28;20920;-60
2022/12/12 01:18:42;;;;;;;23.17;15.33;;;-0.30;99.90;;;;;;5116551;28;20470;-62
2022/12/12 01:21:11;;;;;;;21.93;14.80;;;-0.30;99.90;;;;;;5116466;28;20478;-62
2022/12/12 01:23:39;;;;;;;25.20;13.60;;;-0.30;99.90;;;;;;5116475;28;20469;-60
2022/12/12 01:26:11;;;;;;;21.47;13.73;;;-0.30;99.90;;;;;;5116072;28;20461;-60
2022/12/12 01:28:39;;;;;;;30.33;16.30;;;-0.40;99.90;;;;;;5116298;28;20761;-61
2022/12/12 01:31:06;;;;;;;22.03;15.90;;;-0.30;99.90;;;;;;5115974;28;20459;-60
2022/12/12 01:33:34;;;;;;;19.30;13.47;;;-0.30;99.90;;;;;;5116262;28;20450;-61
2022/12/12 01:36:02;;;;;;;23.70;14.43;;;-0.20;99.90;;;;;;5115954;28;20446;-60
2022/12/12 01:38:29;;;;;;;21.17;14.33;;;-0.30;99.90;;;;;;5115633;28;20482;-61
2022/12/12 01:40:57;;;;;;;20.13;12.53;;;-0.30;99.90;;;;;;5115673;28;20482;-62
2022/12/12 01:43:26;;;;;;;17.77;11.83;;;-0.30;99.90;;;;;;5116107;28;20447;-61
2022/12/12 01:46:29;;;;;;;13.90;11.20;;;-0.30;99.90;;;;;;5115997;28;20447;-61
2022/12/12 01:49:00;;;;;;;19.23;13.70;;;-0.30;99.90;;;;;;5115660;28;20443;-61
2022/12/12 01:51:30;;;;;;;19.07;11.93;;;-0.20;99.90;;;;;;5115585;28;20423;-59
2022/12/12 01:54:02;;;;;;;16.73;12.57;;;-0.10;99.90;;;;;;5116151;28;20481;-61
2022/12/12 01:56:31;;;;;;;18.13;13.17;;;-0.10;99.90;;;;;;5115864;28;20419;-61
2022/12/12 01:59:03;;;;;;;19.80;13.10;;;-0.10;99.90;;;;;;5115475;28;20446;-61
2022/12/12 02:01:32;;;;;;;22.90;13.60;;;0.00;99.90;;;;;;5115377;28;20516;-61
2022/12/12 02:04:00;;;;;;;17.47;12.50;;;0.10;99.90;;;;;;5115345;28;20856;-61
2022/12/12 02:06:29;;;;;;;19.10;12.20;;;0.00;99.90;;;;;;5115146;28;20496;-61
2022/12/12 02:09:01;;;;;;;18.57;11.83;;;-0.30;99.90;;;;;;5115458;28;20449;-60
2022/12/12 02:11:29;;;;;;;15.50;11.70;;;-0.50;99.90;;;;;;5115167;28;20806;-61
2022/12/12 02:13:59;;;;;;;23.27;14.37;;;-0.70;99.90;;;;;;5115538;28;20470;-61
2022/12/12 02:16:40;;;;;;;26.00;14.83;;;-0.80;99.90;;;;;;5115360;28;20469;-61
2022/12/12 02:19:27;;;;;;;17.47;13.00;;;-0.70;99.90;;;;;;5115435;28;20466;-61
2022/12/12 02:22:00;;;;;;;18.97;14.60;;;-0.60;99.90;;;;;;5114693;28;20466;-61
2022/12/12 02:24:58;;;;;;;17.57;11.07;;;-0.70;99.90;;;;;;5114984;28;20442;-61
2022/12/12 02:27:52;;;;;;;21.30;13.97;;;-0.60;99.90;;;;;;5109873;28;20442;-60
2022/12/12 02:30:30;;;;;;;18.10;12.90;;;-0.50;99.90;;;;;;5114790;28;20458;-60
2022/12/12 02:33:10;;;;;;;19.67;14.17;;;-0.40;99.90;;;;;;5115171;28;20437;-60
2022/12/12 02:35:48;;;;;;;18.77;12.10;;;-0.40;99.90;;;;;;5114805;28;20433;-60
2022/12/12 02:38:23;;;;;;;19.20;12.60;;;-0.50;99.90;;;;;;5114456;28;20477;-62
2022/12/12 02:41:11;;;;;;;24.10;15.13;;;-0.50;99.90;;;;;;5114767;28;20493;-60
2022/12/12 02:43:45;;;;;;;19.63;14.30;;;-0.60;99.90;;;;;;5114692;28;20794;-60
2022/12/12 02:46:20;;;;;;;18.10;10.97;;;-0.80;99.90;;;;;;5114565;28;20419;-62
2022/12/12 02:48:54;;;;;;;19.17;13.40;;;-0.80;99.90;;;;;;5114490;28;20434;-62
2022/12/12 02:51:23;;;;;;;21.73;14.20;;;-0.80;99.90;;;;;;5114511;28;20430;-60
2022/12/12 02:53:50;;;;;;;18.97;13.50;;;-0.80;99.90;;;;;;5114438;28;20453;-59
2022/12/12 02:56:52;;;;;;;19.83;14.83;;;-0.70;99.90;;;;;;5114355;28;20457;-62
2022/12/12 02:59:26;;;;;;;19.23;12.93;;;-0.60;99.90;;;;;;5051740;28;20472;-62
2022/12/12 03:02:15;;;;;;;21.93;12.87;;;-0.60;99.90;;;;;;5051614;28;20476;-59
2022/12/12 03:07:57;;;;;;;20.33;13.50;;;-0.70;99.90;;;;;;5114590;28;20437;-61
2022/12/12 03:10:37;;;;;;;16.57;11.43;;;-0.70;99.90;;;;;;5114408;28;20463;-61
2022/12/12 03:13:11;;;;;;;20.30;13.00;;;-0.80;99.90;;;;;;5114422;28;20453;-61
2022/12/12 03:15:51;;;;;;;17.57;12.63;;;-0.90;99.90;;;;;;5114117;28;20442;-61
2022/12/12 03:18:27;;;;;;;19.27;14.03;;;-0.80;99.90;;;;;;5114098;28;20438;-60
2022/12/12 03:21:03;;;;;;;25.30;14.73;;;-0.90;99.90;;;;;;5114179;28;20485;-61
2022/12/12 03:23:37;;;;;;;19.63;12.70;;;-1.10;99.90;;;;;;5114033;28;20889;-62
2022/12/12 03:26:10;;;;;;;22.07;14.17;;;-1.00;99.90;;;;;;5114328;28;20459;-60
2022/12/12 03:28:43;;;;;;;22.53;14.80;;;-1.00;99.90;;;;;;5114031;28;20514;-61
2022/12/12 03:31:13;;;;;;;26.50;14.23;;;-1.00;99.90;;;;;;5113915;28;20920;-59
2022/12/12 03:33:43;;;;;;;20.60;14.20;;;-1.10;99.90;;;;;;5113619;28;20450;-62
2022/12/12 03:36:16;;;;;;;18.23;14.47;;;-1.10;99.90;;;;;;5114666;28;20446;-62
2022/12/12 03:38:55;;;;;;;23.33;14.83;;;-1.00;99.90;;;;;;5113573;28;20485;-62
2022/12/12 03:41:27;;;;;;;21.03;15.50;;;-1.10;99.90;;;;;;5113759;28;21025;-61
2022/12/12 03:43:58;;;;;;;21.83;14.53;;;-1.10;99.90;;;;;;5114103;28;20787;-61
2022/12/12 03:46:30;;;;;;;21.00;14.83;;;-1.10;99.90;;;;;;5113635;28;20919;-61
2022/12/12 03:49:04;;;;;;;22.60;13.97;;;-1.10;99.90;;;;;;5113694;28;20434;-61
2022/12/12 03:51:36;;;;;;;20.47;15.47;;;-1.20;99.90;;;;;;5113938;28;20427;-62
2022/12/12 03:54:08;;;;;;;23.20;15.57;;;-1.10;99.90;;;;;;5113696;28;20426;-62
2022/12/12 03:56:43;;;;;;;21.63;15.17;;;-1.10;99.90;;;;;;5113523;28;20438;-61
2022/12/12 03:59:16;;;;;;;23.83;15.37;;;-1.20;99.90;;;;;;5113559;28;20469;-61
2022/12/12 04:01:49;;;;;;;26.27;16.97;;;-1.30;99.90;;;;;;5113872;28;20823;-61
2022/12/12 04:04:22;;;;;;;21.33;15.40;;;-1.30;99.90;;;;;;5113551;28;20892;-61
2022/12/12 04:06:58;;;;;;;24.07;14.50;;;-1.40;99.90;;;;;;5113992;28;20446;-61
2022/12/12 04:15:21;;;;;;;20.40;15.13;;;-1.50;99.90;;;;;;5113630;28;20410;-61
2022/12/12 04:18:01;;;;;;;21.47;13.57;;;-1.50;99.90;;;;;;5113833;28;20825;-61
2022/12/12 04:23:34;;;;;;;19.20;14.80;;;-1.40;99.90;;;;;;5113491;28;20791;-61
2022/12/12 04:29:01;;;;;;;26.47;16.47;;;-1.40;99.90;;;;;;5113515;28;20406;-60
2022/12/12 04:31:30;;;;;;;24.40;17.27;;;-1.50;99.90;;;;;;5113649;28;20506;-61
2022/12/12 04:34:08;;;;;;;27.10;17.23;;;-1.50;99.90;;;;;;5113535;28;20438;-60
2022/12/12 04:36:36;;;;;;;25.20;18.23;;;-1.50;99.90;;;;;;5113225;28;20434;-59
2022/12/12 04:39:07;;;;;;;28.00;18.90;;;-1.50;99.90;;;;;;5092746;28;20995;-60
2022/12/12 04:41:37;;;;;;;26.93;20.13;;;-1.40;99.90;;;;;;5093095;28;20468;-60
2022/12/12 04:44:10;;;;;;;28.53;18.57;;;-1.40;99.90;;;;;;5093103;28;20447;-60
2022/12/12 04:46:38;;;;;;;32.50;19.43;;;-1.50;99.90;;;;;;5096108;28;20424;-60
2022/12/12 04:49:11;;;;;;;30.90;21.03;;;-1.50;99.90;;;;;;5096672;28;20801;-60
2022/12/12 04:51:43;;;;;;;35.40;21.00;;;-1.50;99.90;;;;;;5096548;28;20424;-61
2022/12/12 04:54:15;;;;;;;25.70;18.73;;;-1.60;99.90;;;;;;5096417;28;20439;-60
2022/12/12 04:56:45;;;;;;;26.50;18.33;;;-1.60;99.90;;;;;;5096662;28;20424;-61
2022/12/12 04:59:12;;;;;;;31.50;22.00;;;-1.60;99.90;;;;;;5096861;28;20585;-60
2022/12/12 05:01:49;;;;;;;33.63;22.40;;;-1.70;99.90;;;;;;5096273;28;20475;-60
2022/12/12 05:04:23;;;;;;;30.97;21.20;;;-1.50;99.90;;;;;;5096507;28;20846;-60
2022/12/12 05:06:58;;;;;;;30.30;19.37;;;-1.60;99.90;;;;;;5095939;28;20459;-60
2022/12/12 05:09:27;;;;;;;35.20;19.77;;;-1.50;99.90;;;;;;5095944;28;20995;-60
2022/12/12 05:11:55;;;;;;;31.97;21.13;;;-1.60;99.90;;;;;;5096280;28;20454;-60
2022/12/12 05:14:22;;;;;;;30.80;20.33;;;-1.60;99.90;;;;;;5096280;28;20447;-60
2022/12/12 05:16:53;;;;;;;31.00;21.43;;;-1.50;99.90;;;;;;5096226;28;20459;-60
2022/12/12 05:19:20;;;;;;;26.13;19.20;;;-1.40;99.90;;;;;;5095820;28;20478;-60
2022/12/12 05:21:48;;;;;;;32.90;19.93;;;-1.60;99.90;;;;;;5095571;28;20485;-60
2022/12/12 05:24:15;;;;;;;30.07;20.10;;;-1.60;99.90;;;;;;5095820;28;20482;-60
2022/12/12 05:26:44;;;;;;;27.50;20.10;;;-1.60;99.90;;;;;;5095665;28;20926;-60
2022/12/12 05:29:12;;;;;;;29.17;19.97;;;-1.40;99.90;;;;;;5095640;28;20973;-60
2022/12/12 05:31:39;;;;;;;30.00;19.77;;;-1.50;99.90;;;;;;5095889;28;20443;-60
2022/12/12 05:34:08;;;;;;;34.93;20.20;;;-1.50;99.90;;;;;;5095529;28;20449;-60
2022/12/12 05:36:36;;;;;;;29.03;19.07;;;-1.50;99.90;;;;;;5095374;28;20500;-60
2022/12/12 05:39:04;;;;;;;26.90;22.00;;;-1.60;99.90;;;;;;5115653;28;20482;-61
2022/12/12 05:41:31;;;;;;;28.57;20.43;;;-1.50;99.90;;;;;;5115528;28;20474;-60
2022/12/12 05:44:00;;;;;;;25.30;18.07;;;-1.40;99.90;;;;;;5115703;28;20457;-60
2022/12/12 05:46:27;;;;;;;33.50;21.57;;;-1.40;99.90;;;;;;5115881;28;20458;-60
2022/12/12 05:48:55;;;;;;;24.20;17.67;;;-1.30;99.90;;;;;;5115575;28;20446;-60
2022/12/12 05:51:22;;;;;;;31.20;21.50;;;-1.40;99.90;;;;;;5115530;28;20804;-61
2022/12/12 05:53:49;;;;;;;29.77;18.10;;;-1.50;99.90;;;;;;5115523;28;20447;-61
2022/12/12 05:56:17;;;;;;;30.57;20.27;;;-1.60;99.90;;;;;;5115640;28;20802;-61
2022/12/12 05:58:44;;;;;;;29.13;20.20;;;-1.60;99.90;;;;;;5115366;28;20947;-60
2022/12/12 06:01:13;;;;;;;29.23;20.20;;;-1.60;99.90;;;;;;5115304;28;20475;-60
2022/12/12 06:03:41;;;;;;;30.20;20.50;;;-1.60;99.90;;;;;;5115337;28;20447;-60
2022/12/12 06:06:08;;;;;;;28.17;21.30;;;-1.50;99.90;;;;;;5115600;28;20442;-60
2022/12/12 06:08:36;;;;;;;33.70;20.07;;;-1.60;99.90;;;;;;5115120;28;20454;-61
2022/12/12 06:11:06;;;;;;;27.37;21.17;;;-1.50;99.90;;;;;;5115393;28;20840;-60
2022/12/12 06:13:33;;;;;;;27.00;21.93;;;-1.60;99.90;;;;;;5115072;28;20477;-60
2022/12/12 06:16:06;;;;;;;28.67;20.23;;;-1.50;99.90;;;;;;5115163;28;20924;-60
2022/12/12 06:18:35;;;;;;;25.20;18.53;;;-1.50;99.90;;;;;;5115078;28;20900;-61
2022/12/12 06:21:04;;;;;;;25.83;19.47;;;-1.40;99.90;;;;;;5114680;28;20952;-60
2022/12/12 06:23:31;;;;;;;30.67;20.27;;;-1.40;99.90;;;;;;5115096;28;20453;-60
2022/12/12 06:25:59;;;;;;;25.93;18.50;;;-1.40;99.90;;;;;;5115106;28;20853;-61
2022/12/12 06:28:26;;;;;;;27.47;18.57;;;-1.40;99.90;;;;;;5115120;28;20446;-61
2022/12/12 06:30:54;;;;;;;30.73;18.80;;;-1.30;99.90;;;;;;5115017;28;20471;-61
2022/12/12 06:33:21;;;;;;;28.40;20.73;;;-1.20;99.90;;;;;;5114744;28;20446;-61
2022/12/12 06:36:00;;;;;;;23.87;19.23;;;-1.30;99.90;;;;;;5114947;28;20807;-61
2022/12/12 06:38:28;;;;;;;27.47;18.50;;;-1.30;99.90;;;;;;5114312;28;20481;-60
2022/12/12 06:40:55;;;;;;;28.23;19.67;;;-1.30;99.90;;;;;;5114220;28;20976;-61
2022/12/12 06:43:23;;;;;;;27.73;18.70;;;-1.20;99.90;;;;;;5114518;28;20482;-61
2022/12/12 06:45:51;;;;;;;31.17;20.80;;;-1.20;99.90;;;;;;5114197;28;20453;-61
2022/12/12 06:48:18;;;;;;;31.03;19.67;;;-1.10;99.90;;;;;;5114649;28;20447;-61
2022/12/12 06:50:46;;;;;;;32.47;21.07;;;-1.10;99.90;;;;;;5114481;28;20467;-61
2022/12/12 06:53:15;;;;;;;31.00;21.10;;;-1.10;99.90;;;;;;5114395;28;20469;-60
2022/12/12 06:55:43;;;;;;;30.07;19.63;;;-1.10;99.90;;;;;;5114353;28;20814;-61
2022/12/12 06:58:11;;;;;;;27.57;19.70;;;-1.30;99.90;;;;;;5114100;28;20450;-61
2022/12/12 07:00:38;;;;;;;30.47;18.53;;;-1.30;99.90;;;;;;5114040;28;20964;-60
2022/12/12 07:03:06;;;;;;;33.50;20.47;;;-1.30;99.90;;;;;;5114296;28;20501;-60
2022/12/12 07:05:33;;;;;;;30.87;21.17;;;-1.20;99.90;;;;;;5114368;28;20484;-61
2022/12/12 07:08:01;;;;;;;28.37;19.53;;;-1.10;99.90;;;;;;5113606;28;20806;-61
2022/12/12 07:10:31;;;;;;;30.80;19.60;;;-1.10;99.90;;;;;;5114111;28;20466;-62
2022/12/12 07:12:58;;;;;;;33.47;20.70;;;-1.00;99.90;;;;;;5113921;28;20449;-61
2022/12/12 07:15:26;;;;;;;28.97;19.40;;;-1.10;99.90;;;;;;5113952;28;20454;-62
2022/12/12 07:17:53;;;;;;;25.67;19.73;;;-1.00;99.90;;;;;;5114222;28;20526;-61
2022/12/12 07:20:21;;;;;;;35.63;21.97;;;-1.00;99.90;;;;;;5113814;28;20481;-62
2022/12/12 07:22:49;;;;;;;28.33;20.67;;;-1.10;99.90;;;;;;5113795;28;20485;-62
2022/12/12 07:25:16;;;;;;;28.40;20.00;;;-1.20;99.90;;;;;;5113745;28;20814;-61
2022/12/12 07:27:45;;;;;;;32.47;21.00;;;-1.20;99.90;;;;;;5113769;28;20446;-61
2022/12/12 07:30:13;;;;;;;26.27;20.07;;;-1.10;99.90;;;;;;5114041;28;20823;-62
2022/12/12 07:32:41;;;;;;;26.50;20.20;;;-1.10;99.90;;;;;;5113372;28;20452;-61
2022/12/12 07:35:09;;;;;;;29.00;20.67;;;-1.10;99.90;;;;;;5113721;28;20443;-62
2022/12/12 07:37:36;;;;;;;32.37;19.53;;;-1.30;99.90;;;;;;5112380;28;20531;-61
2022/12/12 07:40:04;;;;;;;30.00;19.40;;;-1.20;99.90;;;;;;5113783;28;20494;-62
2022/12/12 07:42:32;;;;;;;26.83;20.30;;;-1.20;99.90;;;;;;5113389;28;20471;-62
2022/12/12 07:45:00;;;;;;;29.80;21.10;;;-1.20;99.90;;;;;;5113451;28;20537;-62
2022/12/12 07:47:28;;;;;;;32.40;20.97;;;-1.20;99.90;;;;;;5113303;28;20446;-62
2022/12/12 07:49:55;;;;;;;26.47;19.30;;;-1.20;99.90;;;;;;5113462;28;20463;-62
2022/12/12 07:52:23;;;;;;;25.77;19.90;;;-1.10;99.90;;;;;;5113346;28;20450;-61
2022/12/12 07:54:50;;;;;;;26.30;19.37;;;-1.10;99.90;;;;;;5113840;28;20453;-61
2022/12/12 07:57:17;;;;;;;38.33;22.33;;;-1.10;99.90;;;;;;5113220;28;20533;-60
2022/12/12 07:59:45;;;;;;;31.47;20.10;;;-1.10;99.90;;;;;;5113394;28;20477;-61
2022/12/12 08:02:14;;;;;;;30.63;20.47;;;-1.10;99.90;;;;;;5113059;28;20481;-61
2022/12/12 08:04:41;;;;;;;34.37;20.77;;;-1.00;99.90;;;;;;5113115;28;20442;-60
2022/12/12 08:10:54;;;;;;;27.97;19.40;;;-1.10;99.90;;;;;;5106959;28;20557;-60
2022/12/12 08:16:37;;;;;;;31.17;19.87;;;-1.10;99.90;;;;;;5053667;28;20450;-60
2022/12/12 08:19:06;;;;;;;32.50;21.90;;;-1.10;99.90;;;;;;5113255;28;20467;-60
2022/12/12 08:21:34;;;;;;;29.20;22.03;;;-1.10;99.90;;;;;;5116494;28;20491;-61
2022/12/12 08:24:02;;;;;;;29.10;18.43;;;-1.00;99.90;;;;;;5116993;28;20450;-60
2022/12/12 08:26:31;;;;;;;32.60;20.73;;;-0.90;99.90;;;;;;5117076;28;20450;-60
2022/12/12 08:28:59;;;;;;;27.50;19.07;;;-0.90;99.90;;;;;;5117219;28;20814;-61
2022/12/12 08:31:27;;;;;;;28.07;21.20;;;-0.90;99.90;;;;;;5117299;28;20446;-61
2022/12/12 08:33:55;;;;;;;31.13;20.73;;;-0.90;99.90;;;;;;5116699;28;20533;-61
2022/12/12 08:36:26;;;;;;;33.50;20.63;;;-0.90;99.90;;;;;;5116759;28;20959;-59
2022/12/12 08:38:53;;;;;;;31.73;21.20;;;-0.80;99.90;;;;;;5116645;28;20481;-62
2022/12/12 08:41:20;;;;;;;33.87;21.30;;;-0.80;99.90;;;;;;5116703;28;20450;-61
2022/12/12 08:43:49;;;;;;;28.03;21.47;;;-0.80;99.90;;;;;;5116409;28;20481;-61
2022/12/12 08:46:18;;;;;;;29.20;19.67;;;-0.80;99.90;;;;;;5117049;28;20442;-59
2022/12/12 08:48:46;;;;;;;35.30;21.50;;;-0.60;99.90;;;;;;5116491;28;20463;-59
2022/12/12 08:51:13;;;;;;;38.33;20.87;;;-0.60;99.90;;;;;;5116586;28;20453;-61
2022/12/12 08:53:44;;;;;;;31.00;20.73;;;-0.60;99.90;;;;;;5116774;28;20450;-59
2022/12/12 08:56:11;;;;;;;31.87;19.90;;;-0.60;99.90;;;;;;5116679;28;20791;-59
2022/12/12 08:58:38;;;;;;;36.33;19.87;;;-0.50;99.90;;;;;;5116611;28;20470;-61
2022/12/12 09:01:10;;;;;;;29.73;19.23;;;-0.50;99.90;;;;;;5116731;28;20467;-61
2022/12/12 09:03:37;;;;;;;32.93;21.17;;;-0.50;99.90;;;;;;5116680;28;20815;-61
2022/12/12 09:06:06;;;;;;;28.13;19.90;;;-0.30;99.90;;;;;;5116551;28;20495;-61
2022/12/12 09:08:34;;;;;;;35.43;22.17;;;-0.40;99.90;;;;;;5116723;28;20554;-61
2022/12/12 09:11:03;;;;;;;31.13;23.63;;;-0.30;99.90;;;;;;5116201;28;20494;-61
2022/12/12 09:13:31;;;;;;;28.10;17.87;;;-0.30;99.90;;;;;;5116507;28;20439;-60
2022/12/12 09:15:58;;;;;;;29.13;21.40;;;-0.20;99.90;;;;;;5116260;28;20959;-61
2022/12/12 09:18:26;;;;;;;24.53;18.60;;;-0.20;99.90;;;;;;5116004;28;20533;-61
2022/12/12 09:20:55;;;;;;;27.83;18.37;;;-0.10;99.90;;;;;;5116014;28;20462;-61
2022/12/12 09:23:23;;;;;;;32.33;20.43;;;0.00;99.90;;;;;;5115805;28;20980;-61
2022/12/12 09:25:51;;;;;;;30.20;18.17;;;0.00;99.90;;;;;;5115979;28;20951;-61
2022/12/12 09:28:22;;;;;;;22.00;18.20;;;0.00;99.90;;;;;;5116205;28;20473;-61
2022/12/12 09:30:50;;;;;;;26.93;19.37;;;0.00;99.90;;;;;;5115864;28;20458;-61
2022/12/12 09:33:18;;;;;;;27.20;19.10;;;0.00;99.90;;;;;;5115934;28;20447;-60
2022/12/12 09:35:46;;;;;;;29.67;20.23;;;0.00;99.90;;;;;;5115647;28;20453;-60
2022/12/12 09:38:13;;;;;;;25.10;20.00;;;0.10;99.90;;;;;;5115524;28;20576;-60
2022/12/12 09:40:49;;;;;;;23.90;17.77;;;0.20;99.90;;;;;;5115694;28;20507;-59
2022/12/12 09:43:20;;;;;;;30.20;20.30;;;0.00;99.90;;;;;;5115807;28;20535;-59
2022/12/12 09:45:48;;;;;;;26.07;18.23;;;0.10;99.90;;;;;;5115676;28;20442;-59
2022/12/12 09:48:25;;;;;;;33.70;18.97;;;0.20;99.90;;;;;;5115377;28;20442;-60
2022/12/12 09:50:52;;;;;;;22.80;17.90;;;0.20;99.90;;;;;;5115569;28;21066;-59
2022/12/12 09:53:23;;;;;;;30.57;19.00;;;0.30;99.90;;;;;;5115409;28;20438;-59
2022/12/12 09:55:58;;;;;;;23.00;17.60;;;0.30;99.90;;;;;;5115426;28;20434;-60
2022/12/12 09:58:32;;;;;;;28.80;17.60;;;0.50;99.90;;;;;;5115397;28;20429;-59
2022/12/12 10:01:10;;;;;;;26.57;19.73;;;0.50;99.90;;;;;;5115506;28;20461;-60
2022/12/12 10:03:50;;;;;;;26.50;17.90;;;0.80;99.90;;;;;;5115086;28;20462;-59
2022/12/12 10:06:21;;;;;;;23.40;17.27;;;0.70;99.90;;;;;;5115143;28;20431;-60
2022/12/12 10:08:59;;;;;;;21.50;15.73;;;0.70;99.90;;;;;;5115626;28;20458;-59
2022/12/12 10:14:20;;;;;;;21.07;16.70;;;0.80;99.90;;;;;;5115199;28;20529;-59
2022/12/12 10:16:49;;;;;;;22.23;16.83;;;1.20;99.90;;;;;;5115114;28;20432;-60
2022/12/12 10:19:21;;;;;;;22.70;16.90;;;1.20;99.90;;;;;;5114815;28;20463;-60
2022/12/12 10:21:51;;;;;;;21.33;16.90;;;1.10;99.90;;;;;;5114885;28;20433;-60
2022/12/12 10:24:29;;;;;;;22.53;16.70;;;0.80;99.90;;;;;;5114863;28;20478;-60
2022/12/12 10:26:57;;;;;;;22.60;16.70;;;0.80;99.90;;;;;;5115010;28;20491;-60
2022/12/12 10:29:27;;;;;;;24.30;16.83;;;1.00;99.90;;;;;;5114683;28;21033;-60
2022/12/12 10:32:04;;;;;;;27.60;17.60;;;1.20;99.90;;;;;;5114881;28;20808;-59
2022/12/12 10:34:46;;;;;;;21.27;17.10;;;1.20;99.90;;;;;;5114634;28;20422;-60
2022/12/12 10:37:28;;;;;;;22.90;17.30;;;1.30;99.90;;;;;;5114572;28;20474;-60
2022/12/12 10:40:05;;;;;;;22.00;15.63;;;1.30;99.90;;;;;;5114549;28;20462;-59
2022/12/12 10:42:41;;;;;;;25.60;15.97;;;1.40;99.90;;;;;;5113817;28;20434;-60
2022/12/12 10:45:31;;;;;;;32.60;17.83;;;1.50;99.90;;;;;;5114793;28;20427;-60
2022/12/12 10:47:59;;;;;;;25.80;16.53;;;1.40;99.90;;;;;;5114368;28;20501;-60
2022/12/12 10:50:34;;;;;;;24.93;16.80;;;1.60;99.90;;;;;;5114293;28;20469;-60
2022/12/12 10:53:03;;;;;;;18.67;14.70;;;1.70;99.90;;;;;;5114382;28;20418;-60
2022/12/12 10:55:40;;;;;;;25.47;15.87;;;1.30;99.90;;;;;;5114358;28;20472;-60
2022/12/12 10:58:08;;;;;;;21.60;17.33;;;1.40;99.90;;;;;;5114323;28;20434;-59
2022/12/12 11:00:39;;;;;;;25.13;17.47;;;1.50;99.90;;;;;;5113701;28;20465;-60
2022/12/12 11:03:23;;;;;;;23.93;17.10;;;1.30;99.90;;;;;;5113791;28;20463;-60
2022/12/12 11:05:51;;;;;;;27.80;17.87;;;1.20;99.90;;;;;;5113728;28;20518;-60
2022/12/12 11:08:22;;;;;;;25.80;16.90;;;1.00;99.90;;;;;;5114179;28;20450;-60
2022/12/12 11:11:02;;;;;;;21.27;16.10;;;1.10;99.90;;;;;;5113937;28;20972;-60
2022/12/12 11:13:30;;;;;;;21.23;15.97;;;1.70;99.90;;;;;;5113925;28;20519;-60
2022/12/12 11:16:07;;;;;;;19.33;16.40;;;3.20;99.90;;;;;;5113554;28;20442;-60
2022/12/12 11:18:34;;;;;;;18.93;13.57;;;4.60;99.90;;;;;;5113695;28;20478;-60
2022/12/12 11:21:08;;;;;;;17.27;14.40;;;5.40;99.90;;;;;;5113508;28;20475;-60
2022/12/12 11:23:38;;;;;;;19.10;14.40;;;5.50;99.90;;;;;;5113771;28;20477;-61
2022/12/12 11:26:13;;;;;;;17.13;12.67;;;5.70;99.00;;;;;;5114024;28;20762;-61
2022/12/12 11:28:43;;;;;;;22.20;16.07;;;5.60;98.30;;;;;;5113445;28;20479;-60
2022/12/12 11:31:16;;;;;;;18.70;14.07;;;5.60;97.90;;;;;;5113775;28;20451;-60
2022/12/12 11:33:50;;;;;;;17.33;14.43;;;5.80;98.50;;;;;;5113793;28;20434;-61
2022/12/12 11:36:21;;;;;;;18.63;13.60;;;5.70;97.70;;;;;;5113516;28;20499;-60
2022/12/12 11:38:51;;;;;;;17.80;13.93;;;5.50;97.90;;;;;;5113436;28;20510;-60
2022/12/12 11:41:19;;;;;;;14.50;12.50;;;4.50;97.60;;;;;;5113457;28;20427;-60
2022/12/12 11:44:00;;;;;;;15.97;11.90;;;4.60;98.90;;;;;;5113552;28;20518;-60
2022/12/12 11:46:30;;;;;;;17.87;12.30;;;4.20;98.50;;;;;;5113420;28;20648;-60
2022/12/12 11:49:01;;;;;;;14.80;11.20;;;3.80;98.20;;;;;;5113512;28;20491;-60
2022/12/12 11:51:34;;;;;;;14.30;10.40;;;3.60;98.20;;;;;;5113206;28;20484;-60
2022/12/12 11:54:03;;;;;;;11.77;10.57;;;3.40;98.70;;;;;;5114814;28;20534;-60
2022/12/12 11:56:43;;;;;;;18.10;11.60;;;3.40;99.50;;;;;;5117356;28;20474;-60
2022/12/12 11:59:46;;;;;;;18.07;10.07;;;3.20;99.10;;;;;;5117747;28;20548;-60
2022/12/12 12:02:44;;;;;;;12.83;9.40;;;2.70;99.10;;;;;;5117242;28;20525;-60
2022/12/12 12:05:23;;;;;;;13.87;10.07;;;3.10;99.60;;;;;;5083638;28;20442;-60
2022/12/12 12:08:06;;;;;;;15.90;9.60;;;3.60;99.70;;;;;;5117588;28;20446;-60
2022/12/12 12:10:45;;;;;;;12.10;9.20;;;3.70;98.70;;;;;;5117278;28;20462;-60
2022/12/12 12:13:27;;;;;;;13.93;9.27;;;3.50;98.70;;;;;;5117305;28;20471;-60
2022/12/12 12:16:04;;;;;;;13.13;9.10;;;3.20;98.60;;;;;;5117155;28;20426;-60
2022/12/12 12:18:50;;;;;;;12.43;8.83;;;3.20;99.70;;;;;;5117079;28;20430;-60
2022/12/12 12:21:38;;;;;;;13.23;9.67;;;3.30;99.30;;;;;;5117301;28;20442;-60
2022/12/12 12:24:20;;;;;;;14.87;9.93;;;3.00;98.70;;;;;;5116635;28;20469;-60
2022/12/12 12:26:59;;;;;;;13.47;9.83;;;2.60;98.60;;;;;;5116698;28;20842;-60
2022/12/12 12:29:59;;;;;;;13.97;10.20;;;2.60;99.20;;;;;;5117011;28;20960;-60
2022/12/12 12:32:33;;;;;;;12.73;8.30;;;2.50;99.00;;;;;;5117269;28;20449;-61
2022/12/12 12:35:19;;;;;;;9.97;8.20;;;2.60;99.30;;;;;;5117051;28;20433;-60
2022/12/12 12:37:55;;;;;;;14.57;9.00;;;2.90;99.80;;;;;;5116407;28;20524;-60
2022/12/12 12:40:42;;;;;;;12.90;9.10;;;3.00;99.80;;;;;;5116546;28;20469;-60
2022/12/12 12:43:25;;;;;;;11.37;10.13;;;3.10;99.70;;;;;;5116250;28;20427;-60
2022/12/12 12:45:58;;;;;;;12.93;8.80;;;3.30;99.50;;;;;;5116558;28;20446;-60
2022/12/12 12:48:30;;;;;;;12.47;8.77;;;3.20;98.90;;;;;;5116635;28;20461;-60
2022/12/12 12:51:04;;;;;;;12.87;10.20;;;3.30;99.20;;;;;;5116754;28;20934;-60
2022/12/12 12:53:37;;;;;;;15.57;12.43;;;3.40;99.10;;;;;;5115988;28;20472;-61
2022/12/12 12:56:14;;;;;;;14.80;12.63;;;3.60;99.30;;;;;;5116342;28;20435;-60
2022/12/12 12:58:46;;;;;;;17.93;11.47;;;3.50;99.70;;;;;;5116047;28;20431;-60
2022/12/12 13:01:18;;;;;;;24.03;17.07;;;3.40;99.90;;;;;;5116099;28;20947;-60
2022/12/12 13:03:54;;;;;;;23.10;16.93;;;3.30;99.90;;;;;;5116281;28;20466;-60
2022/12/12 13:06:34;;;;;;;21.77;17.20;;;3.20;99.90;;;;;;5115619;28;20431;-61
2022/12/12 13:09:09;;;;;;;23.53;17.07;;;3.20;99.90;;;;;;5116411;28;20451;-60
2022/12/12 13:11:40;;;;;;;23.07;17.07;;;3.00;99.90;;;;;;5116006;28;20433;-60
2022/12/12 13:14:16;;;;;;;27.03;19.40;;;3.10;99.90;;;;;;5116470;28;20419;-60
2022/12/12 13:16:44;;;;;;;25.70;18.20;;;3.60;99.90;;;;;;5116313;28;20449;-61
2022/12/12 13:19:16;;;;;;;24.83;18.00;;;3.70;99.90;;;;;;5115768;28;20519;-60